sensor_id;sensor_type;location;lat;lon;timestamp;P1;durP1;ratioP1;P2;durP2;ratioP2
67195;SDS011;54122;53.538;49.366;2023-08-17T00:01:00;11.05;;;5.05;;
67195;SDS011;54122;53.538;49.366;2023-08-17T00:03:27;8.38;;;5.43;;
67195;SDS011;54122;53.538;49.366;2023-08-17T00:05:53;7.47;;;4.85;;
67195;SDS011;54122;53.538;49.366;2023-08-17T00:08:20;11.52;;;5.43;;
67195;SDS011;54122;53.538;49.366;2023-08-17T00:10:46;7.82;;;5.15;;
67195;SDS011;54122;53.538;49.366;2023-08-17T00:13:13;8.25;;;4.65;;
67195;SDS011;54122;53.538;49.366;2023-08-17T00:15:40;8.57;;;4.88;;
67195;SDS011;54122;53.538;49.366;2023-08-17T00:18:07;6.80;;;4.43;;
67195;SDS011;54122;53.538;49.366;2023-08-17T00:20:33;7.85;;;4.95;;
67195;SDS011;54122;53.538;49.366;2023-08-17T00:22:59;5.07;;;3.60;;
67195;SDS011;54122;53.538;49.366;2023-08-17T00:25:26;19.40;;;4.72;;
67195;SDS011;54122;53.538;49.366;2023-08-17T00:27:52;5.57;;;4.13;;
67195;SDS011;54122;53.538;49.366;2023-08-17T00:30:18;6.97;;;4.63;;
67195;SDS011;54122;53.538;49.366;2023-08-17T00:32:46;6.43;;;4.65;;
67195;SDS011;54122;53.538;49.366;2023-08-17T00:35:12;10.32;;;4.00;;
67195;SDS011;54122;53.538;49.366;2023-08-17T00:37:38;6.57;;;4.20;;
67195;SDS011;54122;53.538;49.366;2023-08-17T00:40:05;7.97;;;4.50;;
67195;SDS011;54122;53.538;49.366;2023-08-17T00:42:32;13.32;;;5.03;;
67195;SDS011;54122;53.538;49.366;2023-08-17T00:44:58;6.80;;;5.32;;
67195;SDS011;54122;53.538;49.366;2023-08-17T00:47:25;13.25;;;5.50;;
67195;SDS011;54122;53.538;49.366;2023-08-17T00:49:52;11.05;;;5.03;;
67195;SDS011;54122;53.538;49.366;2023-08-17T00:52:19;8.30;;;5.00;;
67195;SDS011;54122;53.538;49.366;2023-08-17T00:54:45;7.13;;;4.30;;
67195;SDS011;54122;53.538;49.366;2023-08-17T00:57:12;6.75;;;5.00;;
67195;SDS011;54122;53.538;49.366;2023-08-17T00:59:38;8.13;;;4.50;;
67195;SDS011;54122;53.538;49.366;2023-08-17T01:02:05;8.00;;;4.80;;
67195;SDS011;54122;53.538;49.366;2023-08-17T01:04:32;6.22;;;4.28;;
67195;SDS011;54122;53.538;49.366;2023-08-17T01:06:58;9.38;;;4.35;;
67195;SDS011;54122;53.538;49.366;2023-08-17T01:09:25;9.10;;;4.90;;
67195;SDS011;54122;53.538;49.366;2023-08-17T01:18:00;8.00;;;5.65;;
67195;SDS011;54122;53.538;49.366;2023-08-17T01:20:36;10.13;;;6.00;;
67195;SDS011;54122;53.538;49.366;2023-08-17T01:23:06;10.63;;;6.05;;
67195;SDS011;54122;53.538;49.366;2023-08-17T01:25:33;11.93;;;6.00;;
67195;SDS011;54122;53.538;49.366;2023-08-17T01:28:02;9.85;;;5.80;;
67195;SDS011;54122;53.538;49.366;2023-08-17T01:30:36;9.38;;;6.32;;
67195;SDS011;54122;53.538;49.366;2023-08-17T01:34:11;9.05;;;5.68;;
67195;SDS011;54122;53.538;49.366;2023-08-17T01:36:22;6.35;;;4.28;;
67195;SDS011;54122;53.538;49.366;2023-08-17T01:38:52;12.80;;;6.30;;
67195;SDS011;54122;53.538;49.366;2023-08-17T01:41:21;10.73;;;6.43;;
67195;SDS011;54122;53.538;49.366;2023-08-17T01:43:49;12.70;;;6.63;;
67195;SDS011;54122;53.538;49.366;2023-08-17T01:46:16;13.15;;;6.05;;
67195;SDS011;54122;53.538;49.366;2023-08-17T01:48:44;9.88;;;6.40;;
67195;SDS011;54122;53.538;49.366;2023-08-17T01:51:17;11.43;;;6.15;;
67195;SDS011;54122;53.538;49.366;2023-08-17T01:53:47;10.10;;;6.25;;
67195;SDS011;54122;53.538;49.366;2023-08-17T01:56:14;16.23;;;7.78;;
67195;SDS011;54122;53.538;49.366;2023-08-17T01:58:40;14.02;;;7.72;;
67195;SDS011;54122;53.538;49.366;2023-08-17T02:01:07;10.50;;;6.88;;
67195;SDS011;54122;53.538;49.366;2023-08-17T02:03:33;11.35;;;6.63;;
67195;SDS011;54122;53.538;49.366;2023-08-17T02:06:00;15.35;;;7.68;;
67195;SDS011;54122;53.538;49.366;2023-08-17T02:08:26;18.65;;;7.05;;
67195;SDS011;54122;53.538;49.366;2023-08-17T02:10:53;20.17;;;7.50;;
67195;SDS011;54122;53.538;49.366;2023-08-17T02:13:20;11.43;;;7.45;;
67195;SDS011;54122;53.538;49.366;2023-08-17T02:15:46;10.75;;;6.70;;
67195;SDS011;54122;53.538;49.366;2023-08-17T02:18:13;13.77;;;6.90;;
67195;SDS011;54122;53.538;49.366;2023-08-17T02:20:39;20.33;;;7.13;;
67195;SDS011;54122;53.538;49.366;2023-08-17T02:23:09;11.35;;;7.13;;
67195;SDS011;54122;53.538;49.366;2023-08-17T02:25:39;13.15;;;7.32;;
67195;SDS011;54122;53.538;49.366;2023-08-17T02:28:06;13.65;;;7.82;;
67195;SDS011;54122;53.538;49.366;2023-08-17T02:30:32;17.48;;;7.65;;
67195;SDS011;54122;53.538;49.366;2023-08-17T02:32:59;17.85;;;7.95;;
67195;SDS011;54122;53.538;49.366;2023-08-17T02:35:25;20.10;;;8.27;;
67195;SDS011;54122;53.538;49.366;2023-08-17T02:37:52;14.98;;;8.20;;
67195;SDS011;54122;53.538;49.366;2023-08-17T02:40:18;12.48;;;8.20;;
67195;SDS011;54122;53.538;49.366;2023-08-17T02:42:44;11.07;;;8.43;;
67195;SDS011;54122;53.538;49.366;2023-08-17T02:45:11;11.18;;;8.23;;
67195;SDS011;54122;53.538;49.366;2023-08-17T02:47:37;23.80;;;8.27;;
67195;SDS011;54122;53.538;49.366;2023-08-17T02:50:04;12.25;;;8.32;;
67195;SDS011;54122;53.538;49.366;2023-08-17T02:52:31;11.50;;;7.80;;
67195;SDS011;54122;53.538;49.366;2023-08-17T02:54:57;19.52;;;8.05;;
67195;SDS011;54122;53.538;49.366;2023-08-17T02:57:24;16.23;;;9.02;;
67195;SDS011;54122;53.538;49.366;2023-08-17T02:59:50;15.23;;;8.18;;
67195;SDS011;54122;53.538;49.366;2023-08-17T03:02:16;18.33;;;8.70;;
67195;SDS011;54122;53.538;49.366;2023-08-17T03:04:43;17.63;;;8.32;;
67195;SDS011;54122;53.538;49.366;2023-08-17T03:07:09;14.65;;;8.82;;
67195;SDS011;54122;53.538;49.366;2023-08-17T03:09:35;13.68;;;8.60;;
67195;SDS011;54122;53.538;49.366;2023-08-17T03:12:02;17.70;;;8.02;;
67195;SDS011;54122;53.538;49.366;2023-08-17T03:14:29;20.45;;;8.32;;
67195;SDS011;54122;53.538;49.366;2023-08-17T03:16:55;17.70;;;7.70;;
67195;SDS011;54122;53.538;49.366;2023-08-17T03:19:22;14.73;;;8.73;;
67195;SDS011;54122;53.538;49.366;2023-08-17T03:21:48;17.52;;;8.30;;
67195;SDS011;54122;53.538;49.366;2023-08-17T03:24:14;14.40;;;8.30;;
67195;SDS011;54122;53.538;49.366;2023-08-17T03:26:41;14.73;;;7.45;;
67195;SDS011;54122;53.538;49.366;2023-08-17T03:29:07;13.57;;;7.97;;
67195;SDS011;54122;53.538;49.366;2023-08-17T03:31:35;10.95;;;7.38;;
67195;SDS011;54122;53.538;49.366;2023-08-17T03:34:01;10.48;;;7.57;;
67195;SDS011;54122;53.538;49.366;2023-08-17T03:36:28;12.15;;;7.43;;
67195;SDS011;54122;53.538;49.366;2023-08-17T03:38:54;8.63;;;6.28;;
67195;SDS011;54122;53.538;49.366;2023-08-17T03:41:21;15.95;;;7.15;;
67195;SDS011;54122;53.538;49.366;2023-08-17T03:43:49;13.80;;;7.95;;
67195;SDS011;54122;53.538;49.366;2023-08-17T03:46:15;10.18;;;5.90;;
67195;SDS011;54122;53.538;49.366;2023-08-17T03:48:41;8.90;;;6.45;;
67195;SDS011;54122;53.538;49.366;2023-08-17T03:51:08;9.00;;;5.47;;
67195;SDS011;54122;53.538;49.366;2023-08-17T03:53:34;6.75;;;5.28;;
67195;SDS011;54122;53.538;49.366;2023-08-17T03:56:01;6.53;;;4.85;;
67195;SDS011;54122;53.538;49.366;2023-08-17T03:58:28;7.47;;;4.65;;
67195;SDS011;54122;53.538;49.366;2023-08-17T04:00:59;6.83;;;4.57;;
67195;SDS011;54122;53.538;49.366;2023-08-17T04:03:25;10.02;;;4.53;;
67195;SDS011;54122;53.538;49.366;2023-08-17T04:05:51;11.57;;;4.40;;
67195;SDS011;54122;53.538;49.366;2023-08-17T04:08:18;6.25;;;4.70;;
67195;SDS011;54122;53.538;49.366;2023-08-17T04:10:44;7.07;;;4.30;;
67195;SDS011;54122;53.538;49.366;2023-08-17T04:13:10;10.00;;;4.47;;
67195;SDS011;54122;53.538;49.366;2023-08-17T04:15:37;7.57;;;5.20;;
67195;SDS011;54122;53.538;49.366;2023-08-17T04:18:03;5.68;;;4.47;;
67195;SDS011;54122;53.538;49.366;2023-08-17T04:20:30;6.47;;;4.55;;
67195;SDS011;54122;53.538;49.366;2023-08-17T04:22:56;8.38;;;4.97;;
67195;SDS011;54122;53.538;49.366;2023-08-17T04:25:23;10.98;;;4.00;;
67195;SDS011;54122;53.538;49.366;2023-08-17T04:27:49;7.40;;;4.97;;
67195;SDS011;54122;53.538;49.366;2023-08-17T04:30:15;6.35;;;3.90;;
67195;SDS011;54122;53.538;49.366;2023-08-17T04:32:42;6.90;;;3.95;;
67195;SDS011;54122;53.538;49.366;2023-08-17T04:35:08;8.23;;;4.72;;
67195;SDS011;54122;53.538;49.366;2023-08-17T04:37:35;8.75;;;4.38;;
67195;SDS011;54122;53.538;49.366;2023-08-17T04:40:02;5.88;;;4.20;;
67195;SDS011;54122;53.538;49.366;2023-08-17T04:42:29;6.28;;;3.85;;
67195;SDS011;54122;53.538;49.366;2023-08-17T04:44:55;10.57;;;3.63;;
67195;SDS011;54122;53.538;49.366;2023-08-17T04:47:22;5.45;;;3.78;;
67195;SDS011;54122;53.538;49.366;2023-08-17T04:49:48;5.82;;;3.40;;
67195;SDS011;54122;53.538;49.366;2023-08-17T04:52:15;9.65;;;4.13;;
67195;SDS011;54122;53.538;49.366;2023-08-17T04:54:41;5.72;;;4.10;;
67195;SDS011;54122;53.538;49.366;2023-08-17T04:57:07;7.65;;;4.05;;
67195;SDS011;54122;53.538;49.366;2023-08-17T04:59:34;4.78;;;3.53;;
67195;SDS011;54122;53.538;49.366;2023-08-17T05:02:00;6.60;;;3.60;;
67195;SDS011;54122;53.538;49.366;2023-08-17T05:04:27;6.60;;;3.85;;
67195;SDS011;54122;53.538;49.366;2023-08-17T05:06:56;6.57;;;3.47;;
67195;SDS011;54122;53.538;49.366;2023-08-17T05:09:23;9.77;;;3.25;;
67195;SDS011;54122;53.538;49.366;2023-08-17T05:11:49;6.18;;;3.47;;
67195;SDS011;54122;53.538;49.366;2023-08-17T05:14:15;6.28;;;3.47;;
67195;SDS011;54122;53.538;49.366;2023-08-17T05:16:42;7.93;;;3.30;;
67195;SDS011;54122;53.538;49.366;2023-08-17T05:19:08;9.27;;;3.80;;
67195;SDS011;54122;53.538;49.366;2023-08-17T05:21:35;6.35;;;3.63;;
67195;SDS011;54122;53.538;49.366;2023-08-17T05:24:02;6.57;;;3.55;;
67195;SDS011;54122;53.538;49.366;2023-08-17T05:26:30;5.15;;;3.40;;
67195;SDS011;54122;53.538;49.366;2023-08-17T05:28:57;6.53;;;3.05;;
67195;SDS011;54122;53.538;49.366;2023-08-17T05:31:24;8.80;;;3.03;;
67195;SDS011;54122;53.538;49.366;2023-08-17T05:33:53;7.50;;;3.38;;
67195;SDS011;54122;53.538;49.366;2023-08-17T05:36:19;4.15;;;2.70;;
67195;SDS011;54122;53.538;49.366;2023-08-17T05:38:46;10.65;;;3.20;;
67195;SDS011;54122;53.538;49.366;2023-08-17T05:41:12;10.68;;;2.92;;
67195;SDS011;54122;53.538;49.366;2023-08-17T05:43:38;6.00;;;3.20;;
67195;SDS011;54122;53.538;49.366;2023-08-17T05:46:05;5.25;;;2.85;;
67195;SDS011;54122;53.538;49.366;2023-08-17T05:48:32;11.77;;;3.35;;
67195;SDS011;54122;53.538;49.366;2023-08-17T05:50:58;5.95;;;3.08;;
67195;SDS011;54122;53.538;49.366;2023-08-17T05:53:25;7.53;;;3.08;;
67195;SDS011;54122;53.538;49.366;2023-08-17T05:55:51;5.20;;;2.80;;
67195;SDS011;54122;53.538;49.366;2023-08-17T05:58:18;7.80;;;3.50;;
67195;SDS011;54122;53.538;49.366;2023-08-17T06:00:44;6.60;;;3.42;;
67195;SDS011;54122;53.538;49.366;2023-08-17T06:03:11;9.43;;;3.33;;
67195;SDS011;54122;53.538;49.366;2023-08-17T06:05:38;6.53;;;3.45;;
67195;SDS011;54122;53.538;49.366;2023-08-17T06:08:05;6.78;;;3.30;;
67195;SDS011;54122;53.538;49.366;2023-08-17T06:10:31;5.35;;;3.30;;
67195;SDS011;54122;53.538;49.366;2023-08-17T06:12:58;5.13;;;3.22;;
67195;SDS011;54122;53.538;49.366;2023-08-17T06:15:24;5.05;;;3.30;;
67195;SDS011;54122;53.538;49.366;2023-08-17T06:17:51;6.10;;;3.47;;
67195;SDS011;54122;53.538;49.366;2023-08-17T06:20:17;6.32;;;3.25;;
67195;SDS011;54122;53.538;49.366;2023-08-17T06:22:44;6.28;;;3.03;;
67195;SDS011;54122;53.538;49.366;2023-08-17T06:25:14;5.03;;;2.67;;
67195;SDS011;54122;53.538;49.366;2023-08-17T06:27:41;6.07;;;2.78;;
67195;SDS011;54122;53.538;49.366;2023-08-17T06:30:10;5.43;;;2.75;;
67195;SDS011;54122;53.538;49.366;2023-08-17T06:32:37;9.40;;;2.63;;
67195;SDS011;54122;53.538;49.366;2023-08-17T06:35:06;4.38;;;2.25;;
67195;SDS011;54122;53.538;49.366;2023-08-17T06:37:33;7.60;;;2.38;;
67195;SDS011;54122;53.538;49.366;2023-08-17T06:40:00;7.75;;;2.13;;
67195;SDS011;54122;53.538;49.366;2023-08-17T06:42:28;10.80;;;2.00;;
67195;SDS011;54122;53.538;49.366;2023-08-17T06:44:54;5.88;;;2.67;;
67195;SDS011;54122;53.538;49.366;2023-08-17T06:47:21;9.70;;;2.17;;
67195;SDS011;54122;53.538;49.366;2023-08-17T06:49:49;7.88;;;3.05;;
67195;SDS011;54122;53.538;49.366;2023-08-17T06:52:15;8.57;;;2.40;;
67195;SDS011;54122;53.538;49.366;2023-08-17T06:54:41;5.15;;;2.70;;
67195;SDS011;54122;53.538;49.366;2023-08-17T06:57:08;7.18;;;2.55;;
67195;SDS011;54122;53.538;49.366;2023-08-17T06:59:36;4.15;;;2.30;;
67195;SDS011;54122;53.538;49.366;2023-08-17T07:02:05;4.57;;;2.20;;
67195;SDS011;54122;53.538;49.366;2023-08-17T07:04:32;10.45;;;2.72;;
67195;SDS011;54122;53.538;49.366;2023-08-17T07:06:58;6.65;;;2.05;;
67195;SDS011;54122;53.538;49.366;2023-08-17T07:09:25;7.15;;;2.63;;
67195;SDS011;54122;53.538;49.366;2023-08-17T07:11:54;5.07;;;2.35;;
67195;SDS011;54122;53.538;49.366;2023-08-17T07:14:21;3.83;;;2.28;;
67195;SDS011;54122;53.538;49.366;2023-08-17T07:16:47;6.90;;;2.20;;
67195;SDS011;54122;53.538;49.366;2023-08-17T07:19:13;8.30;;;2.65;;
67195;SDS011;54122;53.538;49.366;2023-08-17T07:21:42;6.88;;;2.58;;
67195;SDS011;54122;53.538;49.366;2023-08-17T07:24:12;8.63;;;2.83;;
67195;SDS011;54122;53.538;49.366;2023-08-17T07:26:43;4.53;;;2.08;;
67195;SDS011;54122;53.538;49.366;2023-08-17T07:29:09;7.35;;;2.90;;
67195;SDS011;54122;53.538;49.366;2023-08-17T07:31:37;5.30;;;2.42;;
67195;SDS011;54122;53.538;49.366;2023-08-17T07:34:05;4.03;;;2.30;;
67195;SDS011;54122;53.538;49.366;2023-08-17T07:36:32;5.82;;;2.60;;
67195;SDS011;54122;53.538;49.366;2023-08-17T07:38:58;10.73;;;2.58;;
67195;SDS011;54122;53.538;49.366;2023-08-17T07:41:25;7.47;;;2.13;;
67195;SDS011;54122;53.538;49.366;2023-08-17T07:43:52;5.32;;;1.85;;
67195;SDS011;54122;53.538;49.366;2023-08-17T07:46:18;5.25;;;2.10;;
67195;SDS011;54122;53.538;49.366;2023-08-17T07:48:44;6.28;;;2.35;;
67195;SDS011;54122;53.538;49.366;2023-08-17T07:51:11;6.47;;;2.10;;
67195;SDS011;54122;53.538;49.366;2023-08-17T07:53:37;5.20;;;1.92;;
67195;SDS011;54122;53.538;49.366;2023-08-17T07:56:04;4.18;;;2.20;;
67195;SDS011;54122;53.538;49.366;2023-08-17T07:58:31;5.90;;;2.17;;
67195;SDS011;54122;53.538;49.366;2023-08-17T08:00:57;5.07;;;2.33;;
67195;SDS011;54122;53.538;49.366;2023-08-17T08:03:24;5.03;;;2.28;;
67195;SDS011;54122;53.538;49.366;2023-08-17T08:05:51;3.15;;;1.83;;
67195;SDS011;54122;53.538;49.366;2023-08-17T08:08:18;4.32;;;1.98;;
67195;SDS011;54122;53.538;49.366;2023-08-17T08:10:45;5.47;;;2.22;;
67195;SDS011;54122;53.538;49.366;2023-08-17T08:13:12;4.90;;;2.30;;
67195;SDS011;54122;53.538;49.366;2023-08-17T08:15:39;8.63;;;2.58;;
67195;SDS011;54122;53.538;49.366;2023-08-17T08:18:05;7.00;;;2.30;;
67195;SDS011;54122;53.538;49.366;2023-08-17T08:20:32;4.40;;;1.98;;
67195;SDS011;54122;53.538;49.366;2023-08-17T08:22:58;4.25;;;2.00;;
67195;SDS011;54122;53.538;49.366;2023-08-17T08:25:25;4.78;;;2.05;;
67195;SDS011;54122;53.538;49.366;2023-08-17T08:27:51;6.50;;;1.90;;
67195;SDS011;54122;53.538;49.366;2023-08-17T08:30:19;6.25;;;1.90;;
67195;SDS011;54122;53.538;49.366;2023-08-17T08:32:45;9.15;;;2.80;;
67195;SDS011;54122;53.538;49.366;2023-08-17T08:35:12;10.48;;;1.83;;
67195;SDS011;54122;53.538;49.366;2023-08-17T08:37:39;11.13;;;2.17;;
67195;SDS011;54122;53.538;49.366;2023-08-17T08:40:06;8.30;;;2.17;;
67195;SDS011;54122;53.538;49.366;2023-08-17T08:42:38;7.18;;;1.90;;
67195;SDS011;54122;53.538;49.366;2023-08-17T08:45:04;6.68;;;1.70;;
67195;SDS011;54122;53.538;49.366;2023-08-17T08:47:32;10.90;;;1.70;;
67195;SDS011;54122;53.538;49.366;2023-08-17T08:50:02;5.82;;;2.08;;
67195;SDS011;54122;53.538;49.366;2023-08-17T08:52:37;6.78;;;2.15;;
67195;SDS011;54122;53.538;49.366;2023-08-17T08:55:21;5.25;;;1.63;;
67195;SDS011;54122;53.538;49.366;2023-08-17T08:57:52;4.18;;;1.77;;
67195;SDS011;54122;53.538;49.366;2023-08-17T09:00:19;6.72;;;2.13;;
67195;SDS011;54122;53.538;49.366;2023-08-17T09:02:46;4.65;;;1.65;;
67195;SDS011;54122;53.538;49.366;2023-08-17T09:05:15;5.05;;;2.00;;
67195;SDS011;54122;53.538;49.366;2023-08-17T09:07:44;4.43;;;1.80;;
67195;SDS011;54122;53.538;49.366;2023-08-17T09:10:17;5.70;;;1.67;;
67195;SDS011;54122;53.538;49.366;2023-08-17T09:12:45;4.05;;;1.90;;
67195;SDS011;54122;53.538;49.366;2023-08-17T09:15:14;5.97;;;2.37;;
67195;SDS011;54122;53.538;49.366;2023-08-17T09:17:41;5.20;;;1.90;;
67195;SDS011;54122;53.538;49.366;2023-08-17T09:20:08;6.00;;;1.80;;
67195;SDS011;54122;53.538;49.366;2023-08-17T09:22:39;4.88;;;2.03;;
67195;SDS011;54122;53.538;49.366;2023-08-17T09:25:07;5.95;;;2.22;;
67195;SDS011;54122;53.538;49.366;2023-08-17T09:27:38;6.05;;;1.60;;
67195;SDS011;54122;53.538;49.366;2023-08-17T09:30:08;6.95;;;2.20;;
67195;SDS011;54122;53.538;49.366;2023-08-17T09:32:38;9.45;;;1.70;;
67195;SDS011;54122;53.538;49.366;2023-08-17T09:35:08;5.28;;;1.90;;
67195;SDS011;54122;53.538;49.366;2023-08-17T09:37:34;4.00;;;1.63;;
67195;SDS011;54122;53.538;49.366;2023-08-17T09:40:03;5.25;;;1.90;;
67195;SDS011;54122;53.538;49.366;2023-08-17T09:42:30;3.60;;;2.03;;
67195;SDS011;54122;53.538;49.366;2023-08-17T09:45:03;5.03;;;2.42;;
67195;SDS011;54122;53.538;49.366;2023-08-17T09:47:30;12.07;;;2.92;;
67195;SDS011;54122;53.538;49.366;2023-08-17T09:49:57;3.28;;;2.03;;
67195;SDS011;54122;53.538;49.366;2023-08-17T09:52:23;4.85;;;2.00;;
67195;SDS011;54122;53.538;49.366;2023-08-17T09:54:51;6.70;;;2.22;;
67195;SDS011;54122;53.538;49.366;2023-08-17T09:57:20;4.80;;;1.95;;
67195;SDS011;54122;53.538;49.366;2023-08-17T09:59:47;6.10;;;2.30;;
67195;SDS011;54122;53.538;49.366;2023-08-17T10:02:17;9.35;;;1.98;;
67195;SDS011;54122;53.538;49.366;2023-08-17T10:04:52;5.60;;;2.58;;
67195;SDS011;54122;53.538;49.366;2023-08-17T10:07:21;4.38;;;2.17;;
67195;SDS011;54122;53.538;49.366;2023-08-17T10:09:53;4.72;;;2.33;;
67195;SDS011;54122;53.538;49.366;2023-08-17T10:12:30;7.60;;;2.08;;
67195;SDS011;54122;53.538;49.366;2023-08-17T10:15:03;6.68;;;2.35;;
67195;SDS011;54122;53.538;49.366;2023-08-17T10:17:35;8.07;;;2.40;;
67195;SDS011;54122;53.538;49.366;2023-08-17T10:20:08;9.50;;;2.30;;
67195;SDS011;54122;53.538;49.366;2023-08-17T10:22:39;5.90;;;2.50;;
67195;SDS011;54122;53.538;49.366;2023-08-17T10:27:46;10.43;;;2.13;;
67195;SDS011;54122;53.538;49.366;2023-08-17T10:30:14;5.43;;;1.92;;
67195;SDS011;54122;53.538;49.366;2023-08-17T10:32:41;5.70;;;2.40;;
67195;SDS011;54122;53.538;49.366;2023-08-17T10:35:10;6.43;;;2.10;;
67195;SDS011;54122;53.538;49.366;2023-08-17T10:37:41;6.88;;;1.95;;
67195;SDS011;54122;53.538;49.366;2023-08-17T10:40:08;4.60;;;2.13;;
67195;SDS011;54122;53.538;49.366;2023-08-17T10:42:36;3.42;;;1.92;;
67195;SDS011;54122;53.538;49.366;2023-08-17T10:45:25;4.20;;;2.30;;
67195;SDS011;54122;53.538;49.366;2023-08-17T10:48:24;11.15;;;2.35;;
67195;SDS011;54122;53.538;49.366;2023-08-17T10:51:01;7.93;;;2.13;;
67195;SDS011;54122;53.538;49.366;2023-08-17T10:53:37;10.05;;;2.15;;
67195;SDS011;54122;53.538;49.366;2023-08-17T10:56:10;4.07;;;2.20;;
67195;SDS011;54122;53.538;49.366;2023-08-17T10:58:38;8.67;;;2.10;;
67195;SDS011;54122;53.538;49.366;2023-08-17T11:01:06;13.00;;;1.80;;
67195;SDS011;54122;53.538;49.366;2023-08-17T11:03:33;7.53;;;2.08;;
67195;SDS011;54122;53.538;49.366;2023-08-17T11:06:13;7.07;;;2.17;;
67195;SDS011;54122;53.538;49.366;2023-08-17T11:08:52;4.90;;;1.60;;
67195;SDS011;54122;53.538;49.366;2023-08-17T11:11:21;5.03;;;2.10;;
67195;SDS011;54122;53.538;49.366;2023-08-17T11:13:48;6.25;;;1.98;;
67195;SDS011;54122;53.538;49.366;2023-08-17T11:16:16;9.48;;;3.10;;
67195;SDS011;54122;53.538;49.366;2023-08-17T11:18:45;10.57;;;3.03;;
67195;SDS011;54122;53.538;49.366;2023-08-17T11:21:13;6.78;;;2.22;;
67195;SDS011;54122;53.538;49.366;2023-08-17T11:23:42;6.93;;;2.40;;
67195;SDS011;54122;53.538;49.366;2023-08-17T11:26:09;2.28;;;1.80;;
67195;SDS011;54122;53.538;49.366;2023-08-17T11:28:35;5.55;;;1.98;;
67195;SDS011;54122;53.538;49.366;2023-08-17T11:31:07;8.07;;;2.35;;
67195;SDS011;54122;53.538;49.366;2023-08-17T11:33:36;5.82;;;2.40;;
67195;SDS011;54122;53.538;49.366;2023-08-17T11:36:04;10.48;;;2.10;;
67195;SDS011;54122;53.538;49.366;2023-08-17T11:38:32;7.97;;;2.33;;
67195;SDS011;54122;53.538;49.366;2023-08-17T11:41:07;6.10;;;2.45;;
67195;SDS011;54122;53.538;49.366;2023-08-17T11:43:34;8.95;;;3.03;;
67195;SDS011;54122;53.538;49.366;2023-08-17T11:46:02;8.00;;;2.25;;
67195;SDS011;54122;53.538;49.366;2023-08-17T11:48:28;6.55;;;1.95;;
67195;SDS011;54122;53.538;49.366;2023-08-17T11:50:55;4.07;;;1.83;;
67195;SDS011;54122;53.538;49.366;2023-08-17T11:53:22;5.57;;;2.30;;
67195;SDS011;54122;53.538;49.366;2023-08-17T11:55:49;3.28;;;2.03;;
67195;SDS011;54122;53.538;49.366;2023-08-17T11:58:15;8.38;;;2.25;;
67195;SDS011;54122;53.538;49.366;2023-08-17T12:00:42;3.13;;;2.40;;
67195;SDS011;54122;53.538;49.366;2023-08-17T12:03:18;7.07;;;2.65;;
67195;SDS011;54122;53.538;49.366;2023-08-17T12:05:46;8.27;;;2.45;;
67195;SDS011;54122;53.538;49.366;2023-08-17T12:08:13;5.25;;;2.55;;
67195;SDS011;54122;53.538;49.366;2023-08-17T12:10:40;7.03;;;3.40;;
67195;SDS011;54122;53.538;49.366;2023-08-17T12:13:10;7.20;;;2.35;;
67195;SDS011;54122;53.538;49.366;2023-08-17T12:18:06;4.88;;;2.53;;
67195;SDS011;54122;53.538;49.366;2023-08-17T12:20:33;4.10;;;2.35;;
67195;SDS011;54122;53.538;49.366;2023-08-17T12:23:01;5.10;;;2.28;;
67195;SDS011;54122;53.538;49.366;2023-08-17T12:25:28;5.97;;;2.00;;
67195;SDS011;54122;53.538;49.366;2023-08-17T12:27:59;8.68;;;2.85;;
67195;SDS011;54122;53.538;49.366;2023-08-17T12:30:29;6.97;;;2.20;;
67195;SDS011;54122;53.538;49.366;2023-08-17T12:33:01;9.75;;;2.65;;
67195;SDS011;54122;53.538;49.366;2023-08-17T12:35:29;7.55;;;2.10;;
67195;SDS011;54122;53.538;49.366;2023-08-17T12:37:56;4.88;;;2.10;;
67195;SDS011;54122;53.538;49.366;2023-08-17T12:40:23;3.20;;;1.95;;
67195;SDS011;54122;53.538;49.366;2023-08-17T12:42:49;3.80;;;2.00;;
67195;SDS011;54122;53.538;49.366;2023-08-17T12:45:16;8.40;;;2.17;;
67195;SDS011;54122;53.538;49.366;2023-08-17T12:47:43;5.38;;;2.40;;
67195;SDS011;54122;53.538;49.366;2023-08-17T12:50:09;4.97;;;1.80;;
67195;SDS011;54122;53.538;49.366;2023-08-17T12:52:36;4.38;;;2.10;;
67195;SDS011;54122;53.538;49.366;2023-08-17T12:55:02;4.93;;;2.47;;
67195;SDS011;54122;53.538;49.366;2023-08-17T12:57:29;5.63;;;2.00;;
67195;SDS011;54122;53.538;49.366;2023-08-17T12:59:56;8.18;;;1.90;;
67195;SDS011;54122;53.538;49.366;2023-08-17T13:02:23;3.75;;;2.30;;
67195;SDS011;54122;53.538;49.366;2023-08-17T13:04:49;10.23;;;2.40;;
67195;SDS011;54122;53.538;49.366;2023-08-17T13:07:16;10.75;;;2.40;;
67195;SDS011;54122;53.538;49.366;2023-08-17T13:09:42;5.80;;;2.20;;
67195;SDS011;54122;53.538;49.366;2023-08-17T13:12:11;7.90;;;2.17;;
67195;SDS011;54122;53.538;49.366;2023-08-17T13:14:38;2.53;;;1.90;;
67195;SDS011;54122;53.538;49.366;2023-08-17T13:17:05;9.80;;;1.98;;
67195;SDS011;54122;53.538;49.366;2023-08-17T13:19:31;4.47;;;1.88;;
67195;SDS011;54122;53.538;49.366;2023-08-17T13:21:58;3.15;;;1.95;;
67195;SDS011;54122;53.538;49.366;2023-08-17T13:24:24;3.97;;;1.88;;
67195;SDS011;54122;53.538;49.366;2023-08-17T13:26:50;3.20;;;1.75;;
67195;SDS011;54122;53.538;49.366;2023-08-17T13:29:20;3.45;;;1.77;;
67195;SDS011;54122;53.538;49.366;2023-08-17T13:31:47;7.57;;;1.83;;
67195;SDS011;54122;53.538;49.366;2023-08-17T13:34:13;4.78;;;1.30;;
67195;SDS011;54122;53.538;49.366;2023-08-17T13:36:40;2.00;;;1.35;;
67195;SDS011;54122;53.538;49.366;2023-08-17T13:39:06;3.95;;;1.52;;
67195;SDS011;54122;53.538;49.366;2023-08-17T13:41:33;6.65;;;1.52;;
67195;SDS011;54122;53.538;49.366;2023-08-17T13:43:59;4.95;;;1.40;;
67195;SDS011;54122;53.538;49.366;2023-08-17T13:46:27;2.83;;;1.33;;
67195;SDS011;54122;53.538;49.366;2023-08-17T13:48:54;13.88;;;1.58;;
67195;SDS011;54122;53.538;49.366;2023-08-17T13:51:20;3.70;;;1.10;;
67195;SDS011;54122;53.538;49.366;2023-08-17T13:53:48;3.17;;;1.20;;
67195;SDS011;54122;53.538;49.366;2023-08-17T13:56:14;5.97;;;1.60;;
67195;SDS011;54122;53.538;49.366;2023-08-17T13:58:42;3.13;;;1.25;;
67195;SDS011;54122;53.538;49.366;2023-08-17T14:01:08;11.18;;;1.42;;
67195;SDS011;54122;53.538;49.366;2023-08-17T14:03:35;2.20;;;1.35;;
67195;SDS011;54122;53.538;49.366;2023-08-17T14:06:02;7.35;;;1.55;;
67195;SDS011;54122;53.538;49.366;2023-08-17T14:08:29;2.50;;;1.05;;
67195;SDS011;54122;53.538;49.366;2023-08-17T14:10:55;1.88;;;1.25;;
67195;SDS011;54122;53.538;49.366;2023-08-17T14:13:21;1.50;;;1.17;;
67195;SDS011;54122;53.538;49.366;2023-08-17T14:15:48;4.22;;;1.25;;
67195;SDS011;54122;53.538;49.366;2023-08-17T14:18:14;4.50;;;1.15;;
67195;SDS011;54122;53.538;49.366;2023-08-17T14:20:40;3.50;;;1.30;;
67195;SDS011;54122;53.538;49.366;2023-08-17T14:23:07;6.70;;;1.98;;
67195;SDS011;54122;53.538;49.366;2023-08-17T14:25:33;28.90;;;2.30;;
67195;SDS011;54122;53.538;49.366;2023-08-17T14:28:03;10.15;;;1.33;;
67195;SDS011;54122;53.538;49.366;2023-08-17T14:30:31;8.68;;;1.65;;
67195;SDS011;54122;53.538;49.366;2023-08-17T14:32:57;3.88;;;1.30;;
67195;SDS011;54122;53.538;49.366;2023-08-17T14:35:23;13.93;;;1.65;;
67195;SDS011;54122;53.538;49.366;2023-08-17T14:37:50;14.15;;;2.50;;
67195;SDS011;54122;53.538;49.366;2023-08-17T14:40:17;8.18;;;2.08;;
67195;SDS011;54122;53.538;49.366;2023-08-17T14:42:44;6.13;;;2.33;;
67195;SDS011;54122;53.538;49.366;2023-08-17T14:45:11;21.65;;;2.72;;